createdAt,value
2017-12-13T00:01:40.059Z,0.00
2017-12-13T00:02:40.578Z,0.00
2017-12-13T00:04:34.468Z,0.00
2017-12-13T00:05:34.472Z,0.00
2017-12-13T00:07:28.928Z,0.00
2017-12-13T00:08:28.893Z,0.00
2017-12-13T00:10:22.332Z,0.00
2017-12-13T00:11:22.319Z,0.00
2017-12-13T00:13:17.293Z,0.00
2017-12-13T00:14:16.721Z,0.00
2017-12-13T00:16:10.150Z,0.00
2017-12-13T00:17:10.142Z,0.00
2017-12-13T00:19:03.594Z,0.00
2017-12-13T00:20:03.590Z,0.00
2017-12-13T00:21:58.024Z,0.00
2017-12-13T00:22:57.993Z,0.00
2017-12-13T00:24:52.472Z,0.00
2017-12-13T00:25:52.458Z,0.00
2017-12-13T00:27:47.400Z,0.00
2017-12-13T00:28:47.405Z,0.00
2017-12-13T00:30:41.327Z,0.00
2017-12-13T00:31:41.316Z,0.00
2017-12-13T00:33:35.776Z,0.00
2017-12-13T00:34:35.753Z,0.00
2017-12-13T00:36:30.485Z,0.00
2017-12-13T00:37:30.454Z,0.00
2017-12-13T00:39:25.905Z,0.00
2017-12-13T00:40:25.394Z,0.00
2017-12-13T00:42:18.353Z,0.00
2017-12-13T00:43:18.314Z,0.00
2017-12-13T00:45:12.743Z,0.00
2017-12-13T00:46:12.732Z,0.00
2017-12-13T00:48:07.154Z,0.00
2017-12-13T00:49:07.148Z,0.00
2017-12-13T00:51:01.599Z,0.00
2017-12-13T00:52:02.097Z,0.00
2017-12-13T00:53:55.994Z,0.00
2017-12-13T00:54:55.977Z,0.00
2017-12-13T00:56:49.420Z,0.00
2017-12-13T00:57:49.404Z,0.00
2017-12-13T00:59:44.354Z,0.00
2017-12-13T01:00:44.783Z,0.00
2017-12-13T01:02:38.776Z,0.00
2017-12-13T01:03:38.236Z,0.00
2017-12-13T01:05:33.175Z,0.00
2017-12-13T01:06:32.656Z,0.00
2017-12-13T01:08:27.119Z,0.00
2017-12-13T01:09:27.086Z,0.00
2017-12-13T01:11:20.522Z,0.00
2017-12-13T01:12:20.519Z,0.00
2017-12-13T01:14:13.976Z,0.00
2017-12-13T01:15:13.946Z,0.00
2017-12-13T01:17:08.367Z,0.00
2017-12-13T01:18:08.359Z,0.00
2017-12-13T01:20:03.802Z,0.00
2017-12-13T01:21:03.803Z,0.00
2017-12-13T01:22:57.364Z,0.00
2017-12-13T01:23:57.903Z,0.00
2017-12-13T01:25:51.775Z,0.00
2017-12-13T01:26:51.793Z,0.00
2017-12-13T01:28:45.225Z,0.00
2017-12-13T01:29:45.734Z,0.00
2017-12-13T01:31:39.605Z,0.00
2017-12-13T01:32:39.611Z,0.00
2017-12-13T01:34:33.051Z,0.00
2017-12-13T01:35:33.554Z,0.00
2017-12-13T01:37:26.492Z,0.00
2017-12-13T01:38:26.482Z,0.00
2017-12-13T01:40:20.895Z,0.00
2017-12-13T01:41:20.903Z,0.00
2017-12-13T01:43:15.279Z,0.00
2017-12-13T01:44:15.276Z,0.00
2017-12-13T01:46:10.223Z,0.00
2017-12-13T01:47:09.698Z,0.00
2017-12-13T01:49:04.180Z,0.00
2017-12-13T01:50:04.123Z,0.00
2017-12-13T01:51:59.077Z,0.00
2017-12-13T01:52:58.544Z,0.00
2017-12-13T01:54:52.924Z,0.00
2017-12-13T01:55:52.482Z,0.00
2017-12-13T01:57:45.933Z,0.00
2017-12-13T01:58:45.388Z,0.00
2017-12-13T02:00:40.345Z,0.00
2017-12-13T02:01:40.358Z,0.00
2017-12-13T02:03:33.266Z,0.00
2017-12-13T02:04:33.223Z,0.00
2017-12-13T02:06:28.180Z,0.00
2017-12-13T02:07:27.644Z,0.00
2017-12-13T02:09:21.102Z,0.00
2017-12-13T02:10:21.084Z,0.00
2017-12-13T02:12:15.006Z,0.00
2017-12-13T02:13:14.470Z,0.00
2017-12-13T02:15:07.933Z,0.00
2017-12-13T02:16:08.440Z,0.00
2017-12-13T02:18:02.313Z,0.00
2017-12-13T02:19:02.305Z,0.00
2017-12-13T02:20:55.736Z,0.00
2017-12-13T02:21:56.255Z,0.00
2017-12-13T02:23:50.144Z,0.00
2017-12-13T02:24:50.143Z,0.00
2017-12-13T02:26:44.573Z,0.00
2017-12-13T02:27:44.563Z,0.00
2017-12-13T02:29:38.020Z,0.00
2017-12-13T02:30:38.515Z,0.00
2017-12-13T02:32:31.372Z,0.00
2017-12-13T02:33:31.386Z,0.00
2017-12-13T02:35:25.834Z,0.00
2017-12-13T02:36:26.740Z,0.00
2017-12-13T02:38:20.237Z,0.00
2017-12-13T02:39:20.735Z,0.00
2017-12-13T02:41:13.649Z,0.00
2017-12-13T02:42:14.168Z,0.00
2017-12-13T02:44:07.089Z,0.00
2017-12-13T02:45:07.583Z,0.00
2017-12-13T02:47:01.511Z,0.00
2017-12-13T02:48:00.478Z,0.00
2017-12-13T02:49:53.922Z,0.00
2017-12-13T02:50:53.885Z,0.00
2017-12-13T02:52:48.316Z,0.00
2017-12-13T02:53:48.295Z,0.00
2017-12-13T02:55:41.754Z,0.00
2017-12-13T02:56:41.727Z,0.00
2017-12-13T02:58:35.676Z,0.00
2017-12-13T02:59:35.151Z,0.00
2017-12-13T03:01:30.090Z,0.00
2017-12-13T03:02:29.572Z,0.00
2017-12-13T03:04:23.522Z,0.00
2017-12-13T03:05:22.996Z,0.00
2017-12-13T03:07:16.422Z,0.00
2017-12-13T03:08:16.410Z,0.00
2017-12-13T03:10:10.884Z,0.00
2017-12-13T03:11:11.860Z,0.00
2017-12-13T03:13:04.809Z,0.00
2017-12-13T03:14:04.273Z,0.00
2017-12-13T03:15:57.704Z,0.00
2017-12-13T03:16:57.680Z,0.00
2017-12-13T03:18:51.696Z,0.00
2017-12-13T03:19:51.104Z,0.00
2017-12-13T03:21:44.568Z,0.00
2017-12-13T03:22:45.064Z,0.00
2017-12-13T03:24:37.965Z,0.00
2017-12-13T03:25:37.971Z,0.00
2017-12-13T03:27:32.382Z,0.00
2017-12-13T03:28:32.379Z,0.00
2017-12-13T03:30:25.834Z,0.00
2017-12-13T03:31:25.800Z,0.00
2017-12-13T03:33:20.737Z,0.00
2017-12-13T03:34:20.184Z,0.00
2017-12-13T03:36:14.629Z,0.00
2017-12-13T03:37:14.601Z,0.00
2017-12-13T03:39:08.062Z,0.00
2017-12-13T03:40:08.558Z,0.00
2017-12-13T03:42:01.448Z,0.00
2017-12-13T03:43:01.439Z,0.00
2017-12-13T03:44:55.392Z,0.00
2017-12-13T03:45:54.852Z,0.00
2017-12-13T03:47:48.797Z,0.00
2017-12-13T03:48:48.266Z,0.00
2017-12-13T03:50:41.688Z,0.00
2017-12-13T03:51:41.800Z,0.00
2017-12-13T03:53:36.125Z,0.00
2017-12-13T03:54:36.104Z,0.00
2017-12-13T03:56:30.534Z,0.00
2017-12-13T03:57:31.053Z,0.00
2017-12-13T03:59:24.968Z,0.00
2017-12-13T04:00:24.966Z,0.00
2017-12-13T04:02:19.416Z,0.00
2017-12-13T04:03:19.400Z,0.00
2017-12-13T04:05:12.826Z,0.00
2017-12-13T04:06:12.858Z,0.00
2017-12-13T04:08:06.785Z,0.00
2017-12-13T04:09:06.293Z,0.00
2017-12-13T04:10:59.731Z,0.00
2017-12-13T04:11:59.684Z,0.00
2017-12-13T04:13:54.124Z,0.00
2017-12-13T04:14:54.107Z,0.00
2017-12-13T04:16:48.537Z,0.00
2017-12-13T04:17:48.529Z,0.00
2017-12-13T04:19:41.953Z,0.00
2017-12-13T04:20:41.941Z,0.00
2017-12-13T04:22:35.336Z,0.00
2017-12-13T04:23:35.328Z,0.00
2017-12-13T04:25:30.286Z,0.00
2017-12-13T04:26:31.275Z,0.00
2017-12-13T04:28:25.121Z,0.00
2017-12-13T04:29:24.188Z,0.00
2017-12-13T04:31:17.633Z,0.00
2017-12-13T04:32:17.626Z,0.00
2017-12-13T04:34:11.057Z,0.00
2017-12-13T04:35:11.049Z,0.00
2017-12-13T04:37:05.488Z,0.00
2017-12-13T04:38:05.995Z,0.00
2017-12-13T04:39:58.943Z,0.00
2017-12-13T04:40:58.914Z,0.00
2017-12-13T04:42:53.295Z,0.00
2017-12-13T04:43:53.295Z,0.00
2017-12-13T04:45:47.740Z,0.00
2017-12-13T04:46:47.740Z,0.00
2017-12-13T04:48:41.210Z,0.00
2017-12-13T04:49:41.163Z,0.00
2017-12-13T04:51:34.647Z,0.00
2017-12-13T04:52:35.091Z,0.00
2017-12-13T04:54:27.973Z,0.00
2017-12-13T04:55:28.004Z,0.00
2017-12-13T04:57:21.920Z,0.00
2017-12-13T04:58:21.399Z,0.00
2017-12-13T05:00:15.345Z,0.00
2017-12-13T05:01:14.832Z,0.00
2017-12-13T05:03:09.278Z,0.00
2017-12-13T05:04:09.228Z,0.00
2017-12-13T05:06:02.675Z,0.00
2017-12-13T05:07:02.684Z,0.00
2017-12-13T05:08:56.128Z,0.00
2017-12-13T05:09:56.076Z,0.00
2017-12-13T05:11:49.498Z,0.00
2017-12-13T05:12:50.029Z,0.00
2017-12-13T05:14:43.440Z,0.00
2017-12-13T05:15:42.924Z,0.00
2017-12-13T05:17:37.367Z,0.00
2017-12-13T05:18:36.862Z,0.00
2017-12-13T05:20:30.278Z,0.00
2017-12-13T05:21:29.740Z,0.00
2017-12-13T05:23:23.152Z,0.00
2017-12-13T05:24:23.152Z,0.00
2017-12-13T05:26:18.089Z,0.00
2017-12-13T05:27:17.565Z,0.00
2017-12-13T05:29:12.006Z,0.00
2017-12-13T05:30:11.990Z,0.00
2017-12-13T05:32:06.426Z,0.00
2017-12-13T05:33:05.918Z,0.00
2017-12-13T05:34:58.846Z,0.00
2017-12-13T05:35:58.816Z,0.00
2017-12-13T05:37:53.768Z,0.00
2017-12-13T05:38:53.232Z,0.00
2017-12-13T05:40:48.693Z,0.00
2017-12-13T05:41:48.191Z,0.00
2017-12-13T05:43:41.619Z,0.00
2017-12-13T05:44:41.078Z,0.00
2017-12-13T05:46:34.490Z,0.00
2017-12-13T05:47:35.019Z,0.00
2017-12-13T05:49:28.955Z,0.00
2017-12-13T05:50:29.441Z,0.00
2017-12-13T05:52:23.317Z,0.00
2017-12-13T05:53:23.333Z,0.00
2017-12-13T05:55:16.771Z,0.00
2017-12-13T05:56:16.277Z,0.00
2017-12-13T05:58:09.737Z,0.00
2017-12-13T05:59:09.691Z,0.00
2017-12-13T06:01:03.632Z,0.00
2017-12-13T06:02:04.344Z,0.00
2017-12-13T06:04:01.263Z,0.00
2017-12-13T06:05:00.251Z,0.00
2017-12-13T06:06:53.704Z,0.00
2017-12-13T06:07:53.675Z,0.00
2017-12-13T06:09:47.098Z,0.00
2017-12-13T06:10:47.107Z,0.00
2017-12-13T06:12:42.045Z,0.00
2017-12-13T06:13:40.614Z,0.00
2017-12-13T06:15:35.580Z,0.00
2017-12-13T06:16:35.572Z,0.00
2017-12-13T06:18:37.984Z,0.00
2017-12-13T06:19:29.452Z,0.00
2017-12-13T06:21:23.883Z,0.00
2017-12-13T06:22:23.878Z,0.00
2017-12-13T06:24:17.297Z,0.00
2017-12-13T06:25:17.303Z,0.00
2017-12-13T06:27:11.779Z,0.00
2017-12-13T06:28:11.741Z,0.00
2017-12-13T06:30:05.160Z,4.00
2017-12-13T06:31:05.155Z,4.00
2017-12-13T06:32:59.560Z,0.00
2017-12-13T06:33:59.551Z,0.00
2017-12-13T06:35:52.986Z,0.00
2017-12-13T06:36:53.489Z,0.00
2017-12-13T06:38:47.418Z,0.00
2017-12-13T06:39:47.418Z,0.00
2017-12-13T06:41:40.863Z,4.00
2017-12-13T06:42:41.346Z,4.00
2017-12-13T06:44:36.192Z,4.00
2017-12-13T06:45:35.263Z,4.00
2017-12-13T06:47:29.713Z,4.00
2017-12-13T06:48:29.665Z,4.00
2017-12-13T06:50:23.087Z,0.00
2017-12-13T06:51:23.094Z,0.00
2017-12-13T06:53:17.509Z,4.00
2017-12-13T06:54:17.512Z,4.00
2017-12-13T06:56:10.951Z,4.00
2017-12-13T06:57:10.906Z,4.00
2017-12-13T06:59:05.861Z,4.00
2017-12-13T07:00:05.352Z,8.00
2017-12-13T07:02:17.941Z,8.00
2017-12-13T07:02:59.790Z,8.00
2017-12-13T07:04:54.216Z,8.00
2017-12-13T07:05:54.202Z,8.00
2017-12-13T07:07:48.652Z,12.00
2017-12-13T07:08:48.161Z,16.00
2017-12-13T07:10:41.571Z,20.00
2017-12-13T07:11:41.580Z,20.00
2017-12-13T07:13:35.508Z,28.00
2017-12-13T07:14:35.466Z,32.00
2017-12-13T07:16:29.429Z,36.00
2017-12-13T07:17:28.885Z,40.00
2017-12-13T07:19:23.331Z,52.00
2017-12-13T07:20:23.313Z,56.00
2017-12-13T07:22:17.271Z,64.00
2017-12-13T07:23:17.263Z,72.00
2017-12-13T07:25:11.157Z,96.00
2017-12-13T07:26:11.143Z,104.00
2017-12-13T07:28:05.572Z,116.00
2017-12-13T07:29:05.602Z,128.00
2017-12-13T07:30:59.002Z,156.00
2017-12-13T07:31:59.527Z,168.00
2017-12-13T07:33:53.952Z,192.00
2017-12-13T07:34:53.945Z,208.00
2017-12-13T07:36:47.372Z,236.00
2017-12-13T07:37:46.842Z,256.00
2017-12-13T07:39:41.313Z,304.00
2017-12-13T07:40:40.295Z,324.00
2017-12-13T07:42:34.222Z,312.00
2017-12-13T07:43:33.676Z,296.00
2017-12-13T07:45:27.091Z,264.00
2017-12-13T07:46:27.096Z,244.00
2017-12-13T07:48:20.523Z,232.00
2017-12-13T07:49:20.513Z,224.00
2017-12-13T07:51:14.963Z,212.00
2017-12-13T07:52:14.946Z,216.00
2017-12-13T07:54:08.392Z,216.00
2017-12-13T07:55:08.400Z,220.00
2017-12-13T07:57:01.822Z,320.00
2017-12-13T07:58:02.338Z,400.00
2017-12-13T07:59:55.267Z,472.00
2017-12-13T08:00:55.224Z,528.00
2017-12-13T08:02:50.180Z,604.00
2017-12-13T08:03:49.630Z,672.00
2017-12-13T08:05:43.563Z,824.00
2017-12-13T08:06:43.036Z,812.00
2017-12-13T08:08:37.991Z,812.00
2017-12-13T08:09:37.472Z,832.00
2017-12-13T08:11:32.430Z,888.00
2017-12-13T08:12:32.434Z,936.00
2017-12-13T08:14:25.348Z,828.00
2017-12-13T08:15:25.324Z,924.00
2017-12-13T08:17:19.809Z,1128.00
2017-12-13T08:18:19.770Z,1316.00
2017-12-13T08:20:13.224Z,1420.00
2017-12-13T08:21:13.198Z,1500.00
2017-12-13T08:23:07.574Z,1620.00
2017-12-13T08:24:08.145Z,1500.00
2017-12-13T08:26:01.531Z,1484.00
2017-12-13T08:27:01.022Z,1476.00
2017-12-13T08:28:55.439Z,1396.00
2017-12-13T08:29:55.442Z,1428.00
2017-12-13T08:31:49.886Z,1408.00
2017-12-13T08:32:48.879Z,1372.00
2017-12-13T08:34:44.332Z,1212.00
2017-12-13T08:35:43.323Z,1160.00
2017-12-13T08:37:36.791Z,1172.00
2017-12-13T08:38:37.278Z,1156.00
2017-12-13T08:40:30.192Z,1056.00
2017-12-13T08:41:30.710Z,1024.00
2017-12-13T08:43:23.670Z,960.00
2017-12-13T08:44:23.598Z,908.00
2017-12-13T08:46:17.542Z,832.00
2017-12-13T08:47:17.024Z,812.00
2017-12-13T08:49:10.474Z,744.00
2017-12-13T08:50:10.430Z,788.00
2017-12-13T08:52:03.922Z,764.00
2017-12-13T08:53:03.873Z,708.00
2017-12-13T08:54:57.298Z,804.00
2017-12-13T08:55:57.303Z,808.00
2017-12-13T08:57:52.257Z,860.00
2017-12-13T08:58:51.727Z,812.00
2017-12-13T09:00:46.150Z,700.00
2017-12-13T09:01:46.152Z,648.00
2017-12-13T09:03:40.574Z,704.00
2017-12-13T09:04:40.567Z,740.00
2017-12-13T09:06:34.038Z,820.00
2017-12-13T09:07:33.994Z,880.00
2017-12-13T09:09:28.427Z,1016.00
2017-12-13T09:10:28.418Z,1024.00
2017-12-13T09:12:21.898Z,1192.00
2017-12-13T09:13:21.873Z,1268.00
2017-12-13T09:15:15.308Z,1304.00
2017-12-13T09:16:15.312Z,1412.00
2017-12-13T09:18:10.749Z,1204.00
2017-12-13T09:19:09.731Z,1160.00
2017-12-13T09:21:06.206Z,1092.00
2017-12-13T09:22:03.685Z,976.00
2017-12-13T09:23:56.571Z,816.00
2017-12-13T09:24:57.116Z,808.00
2017-12-13T09:26:50.536Z,620.00
2017-12-13T09:27:50.009Z,592.00
2017-12-13T09:29:43.453Z,548.00
2017-12-13T09:30:43.441Z,540.00
2017-12-13T09:32:38.377Z,528.00
2017-12-13T09:33:36.814Z,488.00
2017-12-13T09:35:31.772Z,456.00
2017-12-13T09:36:31.246Z,424.00
2017-12-13T09:38:25.203Z,388.00
2017-12-13T09:39:25.195Z,380.00
2017-12-13T09:41:18.121Z,372.00
2017-12-13T09:42:19.061Z,344.00
2017-12-13T09:44:11.581Z,400.00
2017-12-13T09:45:11.522Z,432.00
2017-12-13T09:47:04.972Z,452.00
2017-12-13T09:48:05.475Z,464.00
2017-12-13T09:49:58.900Z,500.00
2017-12-13T09:50:58.900Z,464.00
2017-12-13T09:52:52.325Z,540.00
2017-12-13T09:53:51.779Z,488.00
2017-12-13T09:55:45.739Z,564.00
2017-12-13T09:56:45.223Z,624.00
2017-12-13T09:58:38.648Z,656.00
2017-12-13T09:59:38.633Z,740.00
2017-12-13T10:01:32.100Z,848.00
2017-12-13T10:02:32.060Z,844.00
2017-12-13T10:04:26.528Z,800.00
2017-12-13T10:05:25.482Z,724.00
2017-12-13T10:07:18.961Z,868.00
2017-12-13T10:08:19.433Z,744.00
2017-12-13T10:10:12.365Z,796.00
2017-12-13T10:11:12.339Z,780.00
2017-12-13T10:13:06.294Z,948.00
2017-12-13T10:14:06.298Z,940.00
2017-12-13T10:15:59.166Z,1340.00
2017-12-13T10:16:59.156Z,1200.00
2017-12-13T10:18:54.648Z,1076.00
2017-12-13T10:19:52.587Z,1192.00
2017-12-13T10:21:46.008Z,1332.00
2017-12-13T10:22:46.005Z,1340.00
2017-12-13T10:24:39.442Z,1064.00
2017-12-13T10:25:39.956Z,1176.00
2017-12-13T10:27:32.851Z,940.00
2017-12-13T10:28:32.880Z,848.00
2017-12-13T10:30:26.808Z,980.00
2017-12-13T10:31:26.283Z,952.00
2017-12-13T10:33:19.735Z,1012.00
2017-12-13T10:34:20.231Z,944.00
2017-12-13T10:36:15.047Z,888.00
2017-12-13T10:37:14.098Z,884.00
2017-12-13T10:39:08.578Z,872.00
2017-12-13T10:40:08.522Z,912.00
2017-12-13T10:42:01.966Z,848.00
2017-12-13T10:43:01.949Z,972.00
2017-12-13T10:44:55.417Z,1144.00
2017-12-13T10:45:55.907Z,1124.00
2017-12-13T10:47:48.792Z,1008.00
2017-12-13T10:48:48.812Z,1116.00
2017-12-13T10:50:42.273Z,1364.00
2017-12-13T10:51:42.237Z,1116.00
2017-12-13T10:53:36.716Z,1464.00
2017-12-13T10:54:36.702Z,1376.00
2017-12-13T10:56:30.187Z,1508.00
2017-12-13T10:57:30.162Z,1564.00
2017-12-13T10:59:24.119Z,1700.00
2017-12-13T11:00:23.605Z,1332.00
2017-12-13T11:02:17.042Z,1480.00
2017-12-13T11:03:17.030Z,1512.00
2017-12-13T11:05:11.961Z,1372.00
2017-12-13T11:06:10.445Z,1364.00
2017-12-13T11:08:03.891Z,1340.00
2017-12-13T11:09:03.870Z,1336.00
2017-12-13T11:10:57.323Z,1332.00
2017-12-13T11:11:57.811Z,1276.00
2017-12-13T11:13:50.739Z,1296.00
2017-12-13T11:14:50.710Z,1212.00
2017-12-13T11:16:45.147Z,1188.00
2017-12-13T11:17:45.142Z,1176.00
2017-12-13T11:19:40.145Z,1304.00
2017-12-13T11:20:39.586Z,1372.00
2017-12-13T11:22:32.984Z,1504.00
2017-12-13T11:23:32.970Z,1432.00
2017-12-13T11:25:26.435Z,1596.00
2017-12-13T11:26:26.919Z,1496.00
2017-12-13T11:28:20.830Z,1620.00
2017-12-13T11:29:19.817Z,1648.00
2017-12-13T11:31:13.253Z,1596.00
2017-12-13T11:32:13.761Z,1416.00
2017-12-13T11:34:07.175Z,1344.00
2017-12-13T11:35:06.662Z,1296.00
2017-12-13T11:37:00.120Z,1304.00
2017-12-13T11:38:00.066Z,1348.00
2017-12-13T11:39:54.512Z,1368.00
2017-12-13T11:40:54.493Z,1352.00
2017-12-13T11:42:47.885Z,1240.00
2017-12-13T11:43:50.486Z,1184.00
2017-12-13T11:45:41.322Z,1244.00
2017-12-13T11:46:41.844Z,1204.00
2017-12-13T11:48:34.737Z,1276.00
2017-12-13T11:49:34.748Z,1212.00
2017-12-13T11:51:28.198Z,1220.00
2017-12-13T11:52:28.154Z,1228.00
2017-12-13T11:54:21.754Z,1260.00
2017-12-13T11:55:21.601Z,1316.00
2017-12-13T11:57:15.036Z,1432.00
2017-12-13T11:58:15.045Z,1540.00
2017-12-13T12:00:08.498Z,1444.00
2017-12-13T12:01:08.990Z,1324.00
2017-12-13T12:03:01.873Z,1304.00
2017-12-13T12:04:01.861Z,1316.00
2017-12-13T12:05:55.292Z,1292.00
2017-12-13T12:06:55.294Z,1252.00
2017-12-13T12:08:50.261Z,1220.00
2017-12-13T12:09:48.716Z,1200.00
2017-12-13T12:11:42.183Z,1160.00
2017-12-13T12:12:43.170Z,1160.00
2017-12-13T12:14:35.606Z,1156.00
2017-12-13T12:15:35.608Z,1164.00
2017-12-13T12:17:29.058Z,1168.00
2017-12-13T12:18:29.042Z,1080.00
2017-12-13T12:20:22.460Z,1044.00
2017-12-13T12:21:23.001Z,1000.00
2017-12-13T12:23:15.923Z,1040.00
2017-12-13T12:24:15.924Z,1096.00
2017-12-13T12:26:10.884Z,1044.00
2017-12-13T12:27:10.411Z,1068.00
2017-12-13T12:29:05.313Z,1036.00
2017-12-13T12:32:49.318Z,836.00
2017-12-13T12:33:46.789Z,808.00
2017-12-13T12:35:40.235Z,788.00
2017-12-13T12:36:40.216Z,768.00
2017-12-13T12:38:33.695Z,712.00
2017-12-13T12:39:34.167Z,760.00
2017-12-13T12:41:27.147Z,800.00
2017-12-13T12:42:27.614Z,712.00
2017-12-13T12:44:20.544Z,616.00
2017-12-13T12:45:21.047Z,588.00
2017-12-13T12:47:15.961Z,536.00
2017-12-13T12:48:13.955Z,540.00
2017-12-13T12:50:07.425Z,552.00
2017-12-13T12:51:07.389Z,560.00
2017-12-13T12:53:00.786Z,612.00
2017-12-13T12:54:00.809Z,620.00
2017-12-13T12:55:54.248Z,564.00
2017-12-13T12:56:54.222Z,544.00
2017-12-13T12:58:47.703Z,544.00
2017-12-13T12:59:47.666Z,524.00
2017-12-13T13:01:41.118Z,656.00
2017-12-13T13:02:42.616Z,696.00
2017-12-13T13:04:35.414Z,672.00
2017-12-13T13:05:35.490Z,756.00
2017-12-13T13:07:28.979Z,792.00
2017-12-13T13:08:28.969Z,776.00
2017-12-13T13:10:23.384Z,860.00
2017-12-13T13:11:23.908Z,792.00
2017-12-13T13:13:16.818Z,864.00
2017-12-13T13:14:16.795Z,800.00
2017-12-13T13:16:22.764Z,744.00
2017-12-13T13:17:21.941Z,768.00
2017-12-13T13:19:15.403Z,696.00
2017-12-13T13:20:15.371Z,608.00
2017-12-13T13:22:09.800Z,620.00
2017-12-13T13:23:08.800Z,620.00
2017-12-13T13:25:02.258Z,636.00
2017-12-13T13:26:02.229Z,640.00
2017-12-13T13:27:55.648Z,560.00
2017-12-13T13:28:55.676Z,572.00
2017-12-13T13:30:49.594Z,524.00
2017-12-13T13:31:49.106Z,520.00
2017-12-13T13:33:43.355Z,572.00
2017-12-13T13:34:43.351Z,556.00
2017-12-13T13:36:37.802Z,648.00
2017-12-13T13:37:36.782Z,640.00
2017-12-13T13:39:31.230Z,696.00
2017-12-13T13:40:31.217Z,696.00
2017-12-13T13:42:24.603Z,892.00
2017-12-13T13:43:24.607Z,880.00
2017-12-13T13:45:19.558Z,796.00
2017-12-13T13:46:18.042Z,736.00
2017-12-13T13:48:12.001Z,572.00
2017-12-13T13:49:11.582Z,588.00
2017-12-13T13:51:06.031Z,620.00
2017-12-13T13:52:06.040Z,648.00
2017-12-13T13:53:59.508Z,644.00
2017-12-13T13:54:59.466Z,600.00
2017-12-13T13:56:54.341Z,624.00
2017-12-13T13:57:53.441Z,640.00
2017-12-13T13:59:46.889Z,648.00
2017-12-13T14:00:47.380Z,644.00
2017-12-13T14:02:40.323Z,580.00
2017-12-13T14:03:40.792Z,576.00
2017-12-13T14:05:33.724Z,548.00
2017-12-13T14:06:34.208Z,516.00
2017-12-13T14:08:28.638Z,512.00
2017-12-13T14:09:28.618Z,496.00
2017-12-13T14:11:22.554Z,436.00
2017-12-13T14:12:21.507Z,396.00
2017-12-13T14:14:14.959Z,412.00
2017-12-13T14:15:14.971Z,428.00
2017-12-13T14:17:08.888Z,396.00
2017-12-13T14:18:08.489Z,360.00
2017-12-13T14:20:01.822Z,356.00
2017-12-13T14:21:01.804Z,340.00
2017-12-13T14:22:55.237Z,456.00
2017-12-13T14:23:55.211Z,580.00
2017-12-13T14:25:48.669Z,676.00
2017-12-13T14:26:49.153Z,596.00
2017-12-13T14:28:42.584Z,768.00
2017-12-13T14:29:42.048Z,688.00
2017-12-13T14:31:35.490Z,676.00
2017-12-13T14:32:35.455Z,728.00
2017-12-13T14:34:29.403Z,708.00
2017-12-13T14:35:29.840Z,620.00
2017-12-13T14:37:22.347Z,572.00
2017-12-13T14:38:23.269Z,552.00
2017-12-13T14:40:15.757Z,476.00
2017-12-13T14:41:15.747Z,564.00
2017-12-13T14:43:09.860Z,856.00
2017-12-13T14:44:09.151Z,948.00
2017-12-13T14:46:02.592Z,848.00
2017-12-13T14:47:03.130Z,764.00
2017-12-13T14:48:56.067Z,592.00
2017-12-13T14:49:56.006Z,532.00
2017-12-13T14:51:49.953Z,376.00
2017-12-13T14:52:49.434Z,316.00
2017-12-13T14:54:42.860Z,316.00
2017-12-13T14:55:42.882Z,320.00
2017-12-13T14:57:36.317Z,340.00
2017-12-13T14:58:36.810Z,336.00
2017-12-13T15:00:30.736Z,336.00
2017-12-13T15:01:29.702Z,328.00
2017-12-13T15:03:23.147Z,296.00
2017-12-13T15:04:23.098Z,276.00
2017-12-13T15:06:16.557Z,248.00
2017-12-13T15:07:18.046Z,232.00
2017-12-13T15:09:09.976Z,200.00
2017-12-13T15:10:09.965Z,184.00
2017-12-13T15:12:03.394Z,180.00
2017-12-13T15:13:03.397Z,172.00
2017-12-13T15:14:56.846Z,152.00
2017-12-13T15:15:56.869Z,136.00
2017-12-13T15:17:50.260Z,108.00
2017-12-13T15:18:50.264Z,100.00
2017-12-13T15:20:43.721Z,84.00
2017-12-13T15:21:43.735Z,76.00
2017-12-13T15:23:37.210Z,72.00
2017-12-13T15:24:37.195Z,64.00
2017-12-13T15:26:30.641Z,64.00
2017-12-13T15:27:30.628Z,60.00
2017-12-13T15:29:24.103Z,52.00
2017-12-13T15:30:24.060Z,40.00
2017-12-13T15:32:17.503Z,32.00
2017-12-13T15:33:17.501Z,28.00
2017-12-13T15:35:12.459Z,24.00
2017-12-13T15:36:10.939Z,16.00
2017-12-13T15:38:04.373Z,16.00
2017-12-13T15:39:04.363Z,12.00
2017-12-13T15:40:57.839Z,8.00
2017-12-13T15:41:57.804Z,8.00
2017-12-13T15:43:51.749Z,8.00
2017-12-13T15:44:51.302Z,8.00
2017-12-13T15:46:44.730Z,4.00
2017-12-13T15:47:44.676Z,4.00
2017-12-13T15:49:38.091Z,4.00
2017-12-13T15:50:38.092Z,4.00
2017-12-13T15:52:34.049Z,0.00
2017-12-13T15:53:32.071Z,0.00
2017-12-13T15:55:24.966Z,4.00
2017-12-13T15:56:24.939Z,4.00
2017-12-13T15:58:18.893Z,4.00
2017-12-13T15:59:18.882Z,4.00
2017-12-13T16:01:11.800Z,0.00
2017-12-13T16:02:11.785Z,0.00
2017-12-13T16:04:05.209Z,0.00
2017-12-13T16:05:05.732Z,0.00
2017-12-13T16:07:00.158Z,0.00
2017-12-13T16:07:58.632Z,0.00
2017-12-13T16:09:53.100Z,0.00
2017-12-13T16:10:53.585Z,0.00
2017-12-13T16:12:47.465Z,0.00
2017-12-13T16:13:47.448Z,0.00
2017-12-13T16:15:40.899Z,0.00
2017-12-13T16:16:40.900Z,0.00
2017-12-13T16:18:38.357Z,0.00
2017-12-13T16:19:35.319Z,0.00
2017-12-13T16:21:28.835Z,0.00
2017-12-13T16:22:28.748Z,0.00
2017-12-13T16:24:23.185Z,0.00
2017-12-13T16:25:23.183Z,0.00
2017-12-13T16:27:17.612Z,0.00
2017-12-13T16:28:17.615Z,0.00
2017-12-13T16:30:11.042Z,0.00
2017-12-13T16:31:11.063Z,0.00
2017-12-13T16:33:04.494Z,0.00
2017-12-13T16:34:04.472Z,0.00
2017-12-13T16:35:58.123Z,0.00
2017-12-13T16:36:58.923Z,0.00
2017-12-13T16:38:51.548Z,0.00
2017-12-13T16:39:51.540Z,0.00
2017-12-13T16:41:44.999Z,0.00
2017-12-13T16:42:44.959Z,0.00
2017-12-13T16:44:39.414Z,0.00
2017-12-13T16:45:38.923Z,0.00
2017-12-13T16:47:32.357Z,0.00
2017-12-13T16:48:31.843Z,0.00
2017-12-13T16:50:25.253Z,0.00
2017-12-13T16:51:25.788Z,0.00
2017-12-13T16:53:18.749Z,0.00
2017-12-13T16:54:18.661Z,0.00
2017-12-13T16:56:13.112Z,0.00
2017-12-13T16:57:12.132Z,0.00
2017-12-13T16:59:05.598Z,0.00
2017-12-13T17:00:07.082Z,0.00
2017-12-13T17:02:01.111Z,0.00
2017-12-13T17:02:58.991Z,0.00
2017-12-13T17:04:52.451Z,0.00
2017-12-13T17:05:52.444Z,0.00
2017-12-13T17:07:45.891Z,0.00
2017-12-13T17:08:45.844Z,0.00
2017-12-13T17:10:40.297Z,0.00
2017-12-13T17:11:39.815Z,0.00
2017-12-13T17:13:32.715Z,0.00
2017-12-13T17:14:33.233Z,0.00
2017-12-13T17:16:27.098Z,0.00
2017-12-13T17:17:26.149Z,0.00
2017-12-13T17:19:19.572Z,0.00
2017-12-13T17:20:19.562Z,0.00
2017-12-13T17:22:13.033Z,0.00
2017-12-13T17:23:13.542Z,0.00
2017-12-13T17:25:06.943Z,0.00
2017-12-13T17:26:06.432Z,0.00
2017-12-13T17:28:00.386Z,0.00
2017-12-13T17:28:59.860Z,0.00
2017-12-13T17:30:53.294Z,0.00
2017-12-13T17:31:53.282Z,0.00
2017-12-13T17:33:46.730Z,0.00
2017-12-13T17:34:46.707Z,0.00
2017-12-13T17:36:41.674Z,0.00
2017-12-13T17:37:41.134Z,0.00
2017-12-13T17:39:34.572Z,0.00
2017-12-13T17:40:34.567Z,0.00
2017-12-13T17:42:28.518Z,0.00
2017-12-13T17:43:27.952Z,0.00
2017-12-13T17:45:23.850Z,0.00
2017-12-13T17:46:22.486Z,0.00
2017-12-13T17:48:16.435Z,0.00
2017-12-13T17:49:15.932Z,0.00
2017-12-13T17:51:09.381Z,0.00
2017-12-13T17:52:09.344Z,0.00
2017-12-13T17:54:04.296Z,0.00
2017-12-13T17:55:03.289Z,0.00
2017-12-13T17:56:56.745Z,0.00
2017-12-13T17:57:56.233Z,0.00
2017-12-13T17:59:50.657Z,0.00
2017-12-13T18:00:50.647Z,0.00
2017-12-13T18:02:44.051Z,0.00
2017-12-13T18:03:44.596Z,0.00
2017-12-13T18:05:38.415Z,0.00
2017-12-13T18:06:37.493Z,0.00
2017-12-13T18:08:30.946Z,0.00
2017-12-13T18:09:30.898Z,0.00
2017-12-13T18:11:24.355Z,0.00
2017-12-13T18:12:25.921Z,0.00
2017-12-13T18:14:18.304Z,0.00
2017-12-13T18:15:17.786Z,0.00
2017-12-13T18:17:11.276Z,0.00
2017-12-13T18:18:11.260Z,0.00
2017-12-13T18:20:04.717Z,0.00
2017-12-13T18:21:04.677Z,0.00
2017-12-13T18:23:00.143Z,0.00
2017-12-13T18:23:59.080Z,0.00
2017-12-13T18:25:53.510Z,0.00
2017-12-13T18:26:53.510Z,0.00
2017-12-13T18:28:47.992Z,0.00
2017-12-13T18:29:47.972Z,0.00
2017-12-13T18:31:42.419Z,0.00
2017-12-13T18:32:42.905Z,0.00
2017-12-13T18:34:34.815Z,0.00
2017-12-13T18:35:35.346Z,0.00
2017-12-13T18:37:29.245Z,0.00
2017-12-13T18:38:29.759Z,0.00
2017-12-13T18:40:23.197Z,0.00
2017-12-13T18:41:22.697Z,0.00